Disclaimer

Please do not use the information listed here in-flight or in-navigation, as they are not provided to us by the airports but are provided by volunteers, so they might be outdated.

Search


Regions


Airport information page

Radio informations:
CARCASSONNE TWR - 121.0 MHz
Automatic Terminal Information Service (ATIS) - 120.025 MHz

Airport informations:
Latitude: 43° 12' 57.52" N
Longitude: 002° 18' 22.74" E
Elevation: 433 feet - 132 meters
Operating hours: Remarks
Operating agency: Civil government, landing fees and diplomatic clearance may be required
Timezone: UTC+1(+2DT) - Last Sunday in March to last Sunday in October
Fuel: Jet A1, without icing nhibitor.

100/130 MIL Spec, low lead, aviation gasoline (BLUE)

Runway information:
10/28 - 6726 x 148 feet< - >2050 x 45 meters

Recent METARs:
LFMK 211900Z AUTO VRB02KT 9999 OVC017 09/08 Q1013
LFMK 211930Z AUTO 07005KT 9999 SCT021 08/07 Q1013
LFMK 212000Z AUTO VRB03KT CAVOK 08/07 Q1014

Airport on the map: